createdAt,value
2023-04-11T00:02:30.125Z,7.62
2023-04-11T00:05:15.677Z,7.82
2023-04-11T00:08:00.981Z,7.78
2023-04-11T00:10:46.120Z,7.82
2023-04-11T00:13:31.154Z,7.76
2023-04-11T00:16:16.598Z,7.64
2023-04-11T00:19:02.108Z,7.90
2023-04-11T00:21:47.448Z,7.87
2023-04-11T00:24:32.698Z,7.90
2023-04-11T00:27:19.449Z,8.03
2023-04-11T00:30:07.182Z,7.96
2023-04-11T00:32:52.858Z,8.04
2023-04-11T00:35:38.027Z,7.88
2023-04-11T00:38:23.307Z,7.87
2023-04-11T00:41:08.764Z,7.81
2023-04-11T00:43:54.265Z,7.79
2023-04-11T00:46:41.612Z,7.99
2023-04-11T00:49:27.136Z,8.04
2023-04-11T00:52:12.362Z,7.94
2023-04-11T00:54:58.296Z,7.74
2023-04-11T00:57:43.896Z,7.89
2023-04-11T01:00:32.355Z,7.92
2023-04-11T01:03:18.594Z,7.92
2023-04-11T01:06:05.974Z,7.81
2023-04-11T01:08:52.048Z,7.93
2023-04-11T01:11:37.560Z,7.71
2023-04-11T01:14:25.449Z,7.63
2023-04-11T01:17:10.807Z,7.31
2023-04-11T01:19:57.358Z,7.49
2023-04-11T01:22:43.087Z,7.02
2023-04-11T01:25:28.402Z,6.63
2023-04-11T01:28:13.600Z,6.71
2023-04-11T01:30:58.685Z,6.49
2023-04-11T01:33:46.676Z,6.59
2023-04-11T01:36:32.064Z,6.18
2023-04-11T01:39:17.466Z,6.68
2023-04-11T01:42:04.277Z,6.80
2023-04-11T01:44:51.593Z,6.96
2023-04-11T01:47:37.190Z,6.96
2023-04-11T01:50:23.491Z,6.79
2023-04-11T01:53:09.103Z,6.90
2023-04-11T01:55:54.919Z,6.92
2023-04-11T01:58:40.448Z,7.17
2023-04-11T02:01:25.700Z,7.25
2023-04-11T02:04:11.080Z,7.41
2023-04-11T02:06:59.554Z,7.45
2023-04-11T02:09:45.131Z,7.52
2023-04-11T02:12:30.727Z,7.49
2023-04-11T02:15:16.313Z,7.45
2023-04-11T02:18:01.709Z,7.41
2023-04-11T02:20:46.771Z,7.38
2023-04-11T02:23:32.130Z,7.13
2023-04-11T02:26:17.481Z,7.30
2023-04-11T02:29:02.674Z,7.14
2023-04-11T02:31:48.745Z,6.95
2023-04-11T02:34:35.818Z,7.14
2023-04-11T02:37:21.258Z,7.05
2023-04-11T02:40:07.424Z,7.06
2023-04-11T02:42:55.298Z,6.75
2023-04-11T02:45:41.298Z,7.01
2023-04-11T02:48:26.832Z,7.04
2023-04-11T02:51:12.373Z,6.99
2023-04-11T02:53:57.575Z,6.83
2023-04-11T02:56:42.873Z,6.83
2023-04-11T02:59:28.507Z,6.90
2023-04-11T03:02:14.046Z,6.88
2023-04-11T03:04:59.347Z,6.81
2023-04-11T03:07:44.629Z,6.84
2023-04-11T03:10:29.954Z,6.72
2023-04-11T03:13:16.976Z,6.51
2023-04-11T03:16:02.219Z,6.47
2023-04-11T03:18:50.214Z,6.44
2023-04-11T03:21:35.417Z,6.28
2023-04-11T03:24:21.469Z,6.35
2023-04-11T03:27:07.569Z,6.52
2023-04-11T03:29:53.194Z,6.64
2023-04-11T03:32:53.483Z,6.70
2023-04-11T03:35:39.199Z,6.52
2023-04-11T03:38:25.369Z,6.32
2023-04-11T03:41:10.663Z,6.34
2023-04-11T03:43:55.849Z,6.73
2023-04-11T03:46:41.304Z,6.76
2023-04-11T03:49:26.942Z,6.85
2023-04-11T03:52:14.846Z,6.89
2023-04-11T03:55:00.204Z,6.75
2023-04-11T03:57:46.716Z,6.55
2023-04-11T04:00:32.438Z,6.52
2023-04-11T04:03:23.889Z,6.45
2023-04-11T04:06:09.815Z,6.56
2023-04-11T04:08:56.049Z,6.41
2023-04-11T04:11:41.742Z,5.76
2023-04-11T04:14:27.390Z,6.20
2023-04-11T04:17:14.819Z,6.27
2023-04-11T04:20:00.409Z,6.25
2023-04-11T04:22:45.902Z,6.27
2023-04-11T04:25:32.119Z,6.19
2023-04-11T04:28:18.637Z,5.97
2023-04-11T04:31:03.947Z,6.07
2023-04-11T04:33:56.277Z,6.25
2023-04-11T04:36:43.731Z,6.17
2023-04-11T04:39:29.419Z,5.80
2023-04-11T04:42:15.403Z,5.82
2023-04-11T04:45:00.692Z,5.99
2023-04-11T04:47:47.401Z,5.86
2023-04-11T04:50:32.561Z,5.95
2023-04-11T04:53:17.810Z,5.85
2023-04-11T04:56:08.207Z,5.91
2023-04-11T04:59:03.526Z,6.07
2023-04-11T05:01:49.964Z,5.98
2023-04-11T05:04:36.362Z,6.15
2023-04-11T05:07:21.922Z,6.04
2023-04-11T05:10:10.407Z,6.10
2023-04-11T05:12:57.693Z,6.19
2023-04-11T05:15:48.029Z,5.96
2023-04-11T05:18:33.093Z,6.29
2023-04-11T05:21:18.811Z,6.16
2023-04-11T05:24:08.093Z,6.25
2023-04-11T05:26:55.486Z,6.10
2023-04-11T05:29:41.046Z,5.97
2023-04-11T05:32:26.744Z,6.05
2023-04-11T05:35:12.233Z,5.93
2023-04-11T05:38:04.714Z,5.87
2023-04-11T05:40:50.490Z,5.91
2023-04-11T05:43:35.740Z,5.84
2023-04-11T05:46:21.426Z,5.95
2023-04-11T05:49:06.894Z,6.11
2023-04-11T05:51:52.418Z,6.11
2023-04-11T05:54:37.600Z,5.94
2023-04-11T05:57:23.234Z,5.87
2023-04-11T06:00:09.115Z,5.93
2023-04-11T06:02:58.325Z,6.14
2023-04-11T06:05:43.901Z,6.31
2023-04-11T06:08:29.138Z,6.40
2023-04-11T06:11:14.344Z,6.46
2023-04-11T06:13:59.728Z,6.66
2023-04-11T06:16:44.959Z,6.90
2023-04-11T06:19:30.433Z,6.92
2023-04-11T06:22:16.013Z,7.15
2023-04-11T06:25:01.605Z,7.36
2023-04-11T06:27:48.131Z,7.25
2023-04-11T06:30:33.142Z,8.01
2023-04-11T06:33:18.522Z,7.94
2023-04-11T06:36:06.071Z,7.62
2023-04-11T06:38:51.465Z,7.35
2023-04-11T06:41:36.974Z,7.24
2023-04-11T06:44:22.293Z,7.42
2023-04-11T06:47:07.745Z,7.17
2023-04-11T06:49:53.965Z,7.17
2023-04-11T06:52:39.129Z,7.40
2023-04-11T06:55:24.294Z,7.53
2023-04-11T06:58:09.631Z,7.73
2023-04-11T07:00:55.734Z,8.05
2023-04-11T07:03:41.043Z,8.06
2023-04-11T07:06:26.531Z,8.22
2023-04-11T07:09:11.986Z,8.01
2023-04-11T07:11:57.077Z,7.97
2023-04-11T07:14:42.186Z,7.95
2023-04-11T07:17:27.499Z,8.03
2023-04-11T07:20:12.851Z,8.33
2023-04-11T07:22:58.216Z,8.39
2023-04-11T07:25:43.383Z,7.85
2023-04-11T07:28:28.918Z,8.26
2023-04-11T07:31:14.525Z,8.37
2023-04-11T07:34:00.112Z,8.31
2023-04-11T07:36:45.788Z,8.30
2023-04-11T07:39:30.969Z,8.42
2023-04-11T07:42:16.402Z,8.38
2023-04-11T07:45:01.940Z,8.22
2023-04-11T07:47:48.127Z,8.07
2023-04-11T07:50:33.480Z,8.18
2023-04-11T07:53:19.130Z,8.13
2023-04-11T07:56:04.782Z,8.50
2023-04-11T07:58:50.218Z,8.55
2023-04-11T08:01:35.329Z,8.70
2023-04-11T08:04:20.958Z,8.50
2023-04-11T08:07:06.607Z,8.36
2023-04-11T08:09:52.148Z,8.68
2023-04-11T08:12:37.454Z,8.81
2023-04-11T08:15:22.995Z,8.51
2023-04-11T08:18:08.346Z,8.25
2023-04-11T08:20:53.741Z,8.48
2023-04-11T08:23:39.734Z,8.49
2023-04-11T08:26:25.233Z,8.49
2023-04-11T08:29:10.669Z,8.30
2023-04-11T08:31:56.192Z,8.32
2023-04-11T08:34:41.822Z,7.20
2023-04-11T08:37:30.773Z,4.89
2023-04-11T08:40:16.208Z,4.66
2023-04-11T08:43:01.761Z,4.03
2023-04-11T08:45:47.578Z,4.06
2023-04-11T08:48:32.688Z,4.05
2023-04-11T08:51:24.829Z,4.14
2023-04-11T08:54:10.536Z,4.39
2023-04-11T08:56:55.730Z,4.74
2023-04-11T08:59:50.195Z,5.13
2023-04-11T09:02:36.046Z,5.18
2023-04-11T09:05:29.278Z,5.61
2023-04-11T09:08:16.378Z,6.19
2023-04-11T09:11:01.575Z,6.88
2023-04-11T09:13:46.779Z,7.20
2023-04-11T09:16:34.086Z,7.56
2023-04-11T09:19:27.330Z,8.13
2023-04-11T09:22:14.259Z,8.49
2023-04-11T09:25:03.039Z,8.84
2023-04-11T09:27:49.364Z,8.43
2023-04-11T09:30:34.990Z,8.18
2023-04-11T09:33:25.531Z,8.15
2023-04-11T09:36:22.959Z,8.10
2023-04-11T09:39:18.052Z,8.54
2023-04-11T09:42:23.168Z,8.50
2023-04-11T09:45:23.525Z,8.36
2023-04-11T09:48:09.156Z,8.33
2023-04-11T09:50:54.860Z,8.39
2023-04-11T09:53:41.465Z,8.44
2023-04-11T09:56:26.945Z,8.83
2023-04-11T09:59:15.037Z,8.85
2023-04-11T10:02:00.689Z,8.79
2023-04-11T10:04:46.410Z,9.04
2023-04-11T10:07:34.029Z,9.13
2023-04-11T10:10:21.240Z,9.47
2023-04-11T10:13:39.027Z,9.63
2023-04-11T10:16:24.515Z,9.66
2023-04-11T10:19:19.113Z,8.87
2023-04-11T10:22:04.831Z,8.69
2023-04-11T10:25:18.826Z,8.89
2023-04-11T10:28:04.187Z,8.66
2023-04-11T10:30:49.612Z,8.75
2023-04-11T10:33:36.042Z,8.71
2023-04-11T10:36:22.761Z,8.98
2023-04-11T10:39:08.354Z,9.01
2023-04-11T10:41:53.399Z,8.97
2023-04-11T10:44:40.071Z,9.11
2023-04-11T10:47:25.687Z,9.00
2023-04-11T10:50:26.285Z,9.17
2023-04-11T10:53:34.321Z,8.86
2023-04-11T10:56:44.412Z,8.78
2023-04-11T10:59:32.503Z,8.79
2023-04-11T11:02:18.392Z,9.38
2023-04-11T11:05:14.956Z,9.78
2023-04-11T11:08:01.427Z,9.92
2023-04-11T11:10:46.828Z,9.53
2023-04-11T11:13:38.886Z,9.11
2023-04-11T11:16:25.938Z,9.16
2023-04-11T11:19:13.993Z,9.25
2023-04-11T11:21:59.411Z,9.54
2023-04-11T11:24:45.108Z,10.06
2023-04-11T11:27:30.254Z,9.85
2023-04-11T11:30:16.401Z,9.82
2023-04-11T11:33:19.726Z,10.13
2023-04-11T11:36:05.601Z,9.93
2023-04-11T11:38:51.044Z,10.22
2023-04-11T11:41:38.392Z,10.14
2023-04-11T11:44:28.748Z,9.97
2023-04-11T11:47:14.412Z,9.94
2023-04-11T11:50:00.471Z,9.73
2023-04-11T11:52:45.810Z,10.00
2023-04-11T11:55:32.294Z,10.34
2023-04-11T11:58:17.442Z,9.81
2023-04-11T12:01:02.829Z,9.73
2023-04-11T12:03:48.538Z,9.85
2023-04-11T12:06:34.063Z,9.96
2023-04-11T12:09:19.819Z,9.55
2023-04-11T12:12:09.050Z,9.39
2023-04-11T12:14:54.887Z,9.29
2023-04-11T12:17:40.671Z,9.63
2023-04-11T12:20:27.271Z,10.18
2023-04-11T12:23:12.670Z,10.32
2023-04-11T12:25:58.132Z,9.94
2023-04-11T12:28:43.745Z,9.85
2023-04-11T12:31:29.087Z,9.65
2023-04-11T12:34:14.786Z,9.66
2023-04-11T12:37:00.022Z,9.32
2023-04-11T12:39:46.187Z,9.54
2023-04-11T12:42:33.274Z,9.71
2023-04-11T12:45:18.298Z,9.80
2023-04-11T12:48:03.679Z,9.58
2023-04-11T12:50:49.288Z,9.62
2023-04-11T12:53:34.711Z,10.03
2023-04-11T12:56:19.972Z,10.23
2023-04-11T12:59:05.135Z,10.01
2023-04-11T13:01:50.204Z,10.11
2023-04-11T13:04:36.124Z,10.10
2023-04-11T13:07:21.820Z,10.01
2023-04-11T13:10:08.373Z,9.80
2023-04-11T13:12:53.388Z,10.29
2023-04-11T13:15:38.653Z,10.14
2023-04-11T13:18:24.288Z,10.02
2023-04-11T13:21:09.828Z,9.99
2023-04-11T13:23:55.295Z,10.03
2023-04-11T13:26:40.476Z,9.76
2023-04-11T13:29:26.125Z,9.97
2023-04-11T13:32:11.693Z,10.13
2023-04-11T13:34:56.853Z,10.09
2023-04-11T13:37:42.186Z,9.86
2023-04-11T13:40:27.251Z,9.75
2023-04-11T13:43:12.755Z,9.00
2023-04-11T13:45:58.214Z,9.27
2023-04-11T13:48:46.527Z,9.41
2023-04-11T13:51:32.614Z,9.60
2023-04-11T13:54:18.096Z,9.89
2023-04-11T13:57:03.759Z,10.14
2023-04-11T13:59:49.168Z,10.15
2023-04-11T14:02:34.524Z,9.94
2023-04-11T14:05:20.053Z,9.85
2023-04-11T14:08:05.842Z,9.77
2023-04-11T14:10:51.847Z,9.68
2023-04-11T14:13:36.986Z,9.50
2023-04-11T14:16:22.439Z,9.18
2023-04-11T14:19:08.038Z,8.90
2023-04-11T14:21:53.420Z,8.72
2023-04-11T14:24:39.400Z,8.31
2023-04-11T14:27:24.768Z,8.24
2023-04-11T14:30:11.886Z,8.32
2023-04-11T14:32:57.506Z,8.06
2023-04-11T14:35:42.567Z,7.42
2023-04-11T14:38:27.655Z,7.35
2023-04-11T14:41:13.380Z,7.07
2023-04-11T14:43:58.817Z,7.03
2023-04-11T14:46:44.423Z,7.20
2023-04-11T14:49:29.795Z,7.31
2023-04-11T14:52:15.003Z,7.31
2023-04-11T14:55:00.193Z,6.74
2023-04-11T14:57:45.505Z,7.17
2023-04-11T15:00:30.831Z,6.72
2023-04-11T15:03:16.404Z,6.78
2023-04-11T15:06:02.776Z,7.10
2023-04-11T15:08:47.978Z,7.07
2023-04-11T15:11:33.842Z,7.13
2023-04-11T15:14:19.517Z,7.17
2023-04-11T15:17:04.662Z,7.26
2023-04-11T15:19:49.829Z,7.31
2023-04-11T15:22:38.090Z,7.42
2023-04-11T15:25:24.450Z,7.76
2023-04-11T15:28:09.777Z,7.70
2023-04-11T15:30:55.071Z,8.00
2023-04-11T15:33:40.533Z,8.17
2023-04-11T15:36:25.842Z,8.36
2023-04-11T15:39:11.571Z,8.51
2023-04-11T15:41:58.017Z,8.53
2023-04-11T15:44:46.051Z,8.86
2023-04-11T15:47:31.291Z,8.95
2023-04-11T15:50:17.246Z,8.97
2023-04-11T15:53:02.761Z,8.80
2023-04-11T15:55:48.161Z,8.73
2023-04-11T15:58:33.911Z,8.64
2023-04-11T16:01:21.027Z,8.43
2023-04-11T16:04:06.484Z,8.23
2023-04-11T16:06:52.529Z,7.96
2023-04-11T16:09:37.952Z,8.13
2023-04-11T16:12:23.850Z,8.15
2023-04-11T16:15:09.076Z,8.03
2023-04-11T16:17:55.478Z,8.17
2023-04-11T16:20:40.530Z,7.97
2023-04-11T16:23:26.133Z,7.61
2023-04-11T16:26:11.585Z,7.90
2023-04-11T16:28:56.913Z,7.91
2023-04-11T16:31:42.179Z,8.05
2023-04-11T16:34:27.734Z,8.07
2023-04-11T16:37:13.245Z,8.13
2023-04-11T16:39:58.560Z,8.09
2023-04-11T16:42:43.712Z,8.24
2023-04-11T16:45:29.184Z,8.42
2023-04-11T16:48:14.303Z,8.42
2023-04-11T16:51:00.939Z,8.68
2023-04-11T16:53:45.943Z,8.70
2023-04-11T16:56:31.581Z,8.12
2023-04-11T16:59:18.106Z,8.51
2023-04-11T17:02:03.458Z,8.66
2023-04-11T17:04:49.070Z,8.55
2023-04-11T17:07:34.277Z,8.65
2023-04-11T17:10:20.947Z,8.63
2023-04-11T17:13:06.528Z,8.71
2023-04-11T17:15:52.054Z,8.70
2023-04-11T17:18:38.202Z,8.50
2023-04-11T17:21:23.374Z,8.60
2023-04-11T17:24:08.592Z,8.59
2023-04-11T17:26:53.945Z,8.53
2023-04-11T17:29:39.231Z,8.54
2023-04-11T17:32:24.691Z,8.46
2023-04-11T17:35:11.026Z,8.28
2023-04-11T17:37:56.317Z,7.95
2023-04-11T17:40:41.824Z,8.26
2023-04-11T17:43:27.125Z,8.12
2023-04-11T17:46:12.702Z,8.13
2023-04-11T17:49:00.091Z,7.55
2023-04-11T17:51:56.271Z,8.04
2023-04-11T17:54:44.378Z,6.68
2023-04-11T17:57:30.816Z,7.99
2023-04-11T18:03:01.807Z,6.25
2023-04-11T18:05:48.164Z,6.83
2023-04-11T18:08:48.860Z,5.94
2023-04-11T18:11:35.240Z,7.39
2023-04-11T18:14:21.915Z,7.22
2023-04-11T18:17:08.885Z,7.04
2023-04-11T18:19:54.054Z,6.65
2023-04-11T18:22:43.261Z,6.99
2023-04-11T18:25:28.560Z,6.08
2023-04-11T18:28:13.699Z,6.47
2023-04-11T18:30:59.121Z,5.95
2023-04-11T18:33:46.766Z,5.69
2023-04-11T18:36:44.783Z,6.23
2023-04-11T18:39:30.472Z,5.34
2023-04-11T18:42:15.933Z,6.11
2023-04-11T18:45:01.646Z,5.59
2023-04-11T18:47:47.566Z,5.53
2023-04-11T18:50:33.179Z,4.80
2023-04-11T18:53:18.919Z,5.14
2023-04-11T18:56:04.070Z,5.76
2023-04-11T18:58:53.538Z,4.95
2023-04-11T19:01:41.269Z,4.98
2023-04-11T19:04:27.382Z,4.99
2023-04-11T19:07:16.906Z,5.10
2023-04-11T19:10:02.355Z,4.81
2023-04-11T19:12:47.901Z,5.18
2023-04-11T19:15:33.792Z,4.46
2023-04-11T19:18:19.633Z,4.43
2023-04-11T19:21:05.446Z,4.44
2023-04-11T19:23:50.953Z,4.96
2023-04-11T19:26:36.797Z,4.16
2023-04-11T19:29:22.171Z,3.49
2023-04-11T19:32:10.734Z,4.39
2023-04-11T19:34:56.347Z,4.10
2023-04-11T19:37:41.573Z,4.08
2023-04-11T19:40:27.487Z,3.20
2023-04-11T19:43:13.413Z,3.85
2023-04-11T19:45:58.962Z,4.26
2023-04-11T19:48:45.200Z,4.20
2023-04-11T19:51:30.955Z,3.81
2023-04-11T19:54:20.729Z,4.13
2023-04-11T19:57:05.904Z,4.36
2023-04-11T19:59:51.590Z,3.54
2023-04-11T20:02:38.117Z,3.31
2023-04-11T20:05:23.462Z,1.92
2023-04-11T20:08:09.275Z,3.54
2023-04-11T20:10:54.738Z,3.08
2023-04-11T20:13:40.363Z,3.69
2023-04-11T20:16:25.762Z,3.19
2023-04-11T20:19:11.109Z,2.45
2023-04-11T20:21:56.617Z,3.87
2023-04-11T20:25:07.567Z,2.03
2023-04-11T20:27:53.353Z,3.36
2023-04-11T20:30:39.034Z,2.03
2023-04-11T20:33:25.556Z,2.81
2023-04-11T20:36:12.803Z,3.56
2023-04-11T20:39:00.782Z,2.63
2023-04-11T20:41:46.104Z,2.77
2023-04-11T20:44:31.834Z,2.97
2023-04-11T20:47:17.050Z,1.41
2023-04-11T20:50:07.814Z,3.66
2023-04-11T20:52:53.070Z,2.38
2023-04-11T20:55:38.877Z,2.47
2023-04-11T20:58:24.058Z,3.38
2023-04-11T21:01:09.602Z,3.04
2023-04-11T21:03:55.197Z,3.30
2023-04-11T21:06:40.857Z,1.89
2023-04-11T21:09:26.367Z,3.03
2023-04-11T21:12:12.102Z,2.81
2023-04-11T21:14:58.262Z,2.60
2023-04-11T21:17:43.826Z,3.10
2023-04-11T21:20:29.361Z,3.18
2023-04-11T21:23:14.541Z,1.71
2023-04-11T21:25:59.926Z,2.38
2023-04-11T21:28:45.371Z,1.91
2023-04-11T21:31:31.602Z,2.78
2023-04-11T21:34:17.095Z,2.08
2023-04-11T21:37:02.587Z,0.93
2023-04-11T21:39:48.041Z,2.22
2023-04-11T21:42:33.361Z,0.04
2023-04-11T21:45:18.740Z,1.89
2023-04-11T21:48:04.017Z,1.43
2023-04-11T21:50:49.433Z,1.19
2023-04-11T21:53:34.736Z,2.47
2023-04-11T21:56:20.317Z,2.19
2023-04-11T21:59:05.648Z,1.55
2023-04-11T22:01:52.580Z,0.79
2023-04-11T22:04:51.324Z,-0.27
2023-04-11T22:07:43.636Z,0.00
2023-04-11T22:10:37.816Z,0.55
2023-04-11T22:13:30.364Z,1.90
2023-04-11T22:16:15.732Z,0.69
2023-04-11T22:19:01.740Z,1.43
2023-04-11T22:21:47.067Z,1.33
2023-04-11T22:24:32.418Z,2.00
2023-04-11T22:27:17.538Z,1.83
2023-04-11T22:30:02.821Z,2.21
2023-04-11T22:32:48.187Z,1.51
2023-04-11T22:35:33.358Z,1.75
2023-04-11T22:38:19.076Z,1.40
2023-04-11T22:41:04.908Z,1.70
2023-04-11T22:43:50.210Z,1.58
2023-04-11T22:46:36.532Z,1.38
2023-04-11T22:49:22.065Z,1.37
2023-04-11T22:52:10.966Z,0.84
2023-04-11T22:54:56.010Z,0.80
2023-04-11T22:57:42.687Z,1.05
2023-04-11T23:00:28.688Z,2.18
2023-04-11T23:03:14.309Z,0.81
2023-04-11T23:06:00.118Z,1.74
2023-04-11T23:08:45.575Z,2.16
2023-04-11T23:11:30.769Z,0.62
2023-04-11T23:14:16.389Z,1.34
2023-04-11T23:17:02.894Z,-0.12
2023-04-11T23:19:48.582Z,0.26
2023-04-11T23:22:33.902Z,0.63
2023-04-11T23:25:19.739Z,0.51
2023-04-11T23:28:05.329Z,0.45
2023-04-11T23:30:50.499Z,1.26
2023-04-11T23:33:35.800Z,-0.96
2023-04-11T23:36:21.246Z,0.05
2023-04-11T23:39:06.671Z,1.30
2023-04-11T23:41:52.402Z,0.14
2023-04-11T23:44:37.412Z,-0.10
2023-04-11T23:47:23.071Z,1.14
2023-04-11T23:50:09.125Z,1.89
2023-04-11T23:52:54.493Z,1.67
2023-04-11T23:55:39.639Z,1.91
2023-04-11T23:58:25.419Z,1.20
